Lake Charles/Chennault AFB, Louisiana
Current Conditions -  °F | °C
As of 1:45 PM on Thursday 27 Nov 2014 (Local Time) from KCWF Reporting Station
Clear Clear  
Wind Chill: 63°   Ceiling: Unl
Heat Index: 63°   Visibility: 10mi
Dew Point: 30°   Wind: 12mph
Humidity: 30%   Direction: 360°N
Pressure: 30.41"   Gusts: NA
Location:  30.22°N, 93.15°W
Report Text: KCWF 271945Z 36010KT 10SM SKC 17/M01 A3041
Loading
Personal Weather Stations






























Interactive Weather Map New forecast layout! Learn more

10-Day Weather Forecast

Advertisements
Track Severe Weather on mobile